Time;durP1;ratioP1;P1;durP2;ratioP2;P2;SDS_P1;SDS_P2;PMS_P1;PMS_P2;Temp;Humidity;BMP_temperature;BMP_pressure;BME280_temperature;BME280_humidity;BME280_pressure;Samples;Min_cycle;Max_cycle;Signal;HPM_P1;HPM_P2
2022/08/13 00:01:43;;;;;;;11.37;10.67;;;17.50;98.70;;;;;;4916523;29;20504;-71
2022/08/13 00:04:12;;;;;;;10.90;10.20;;;17.40;98.60;;;;;;4916404;29;20454;-70
2022/08/13 00:07:03;;;;;;;11.40;10.90;;;17.30;99.20;;;;;;4916201;29;20497;-70
2022/08/13 00:09:32;;;;;;;10.93;10.53;;;17.30;99.50;;;;;;4916315;29;20466;-70
2022/08/13 00:14:45;;;;;;;10.90;10.50;;;17.20;99.40;;;;;;4916133;29;20542;-70
2022/08/13 00:17:12;;;;;;;11.37;10.80;;;17.20;99.80;;;;;;4916208;29;20809;-70
2022/08/13 00:19:41;;;;;;;10.80;10.40;;;17.10;99.90;;;;;;4916011;29;20455;-71
2022/08/13 00:22:08;;;;;;;10.93;10.43;;;17.10;99.90;;;;;;4915070;29;20462;-71
2022/08/13 00:24:38;;;;;;;11.30;10.90;;;17.10;99.90;;;;;;4916149;29;20537;-71
2022/08/13 00:27:05;;;;;;;10.90;10.50;;;17.00;99.90;;;;;;4916114;29;21007;-71
2022/08/13 00:29:32;;;;;;;10.27;9.57;;;16.90;99.90;;;;;;4916110;29;20454;-71
2022/08/13 00:31:59;;;;;;;10.87;10.37;;;16.90;99.90;;;;;;4915909;29;20500;-70
2022/08/13 00:34:27;;;;;;;11.10;10.50;;;16.90;99.90;;;;;;4915832;29;20959;-71
2022/08/13 00:36:54;;;;;;;11.17;10.63;;;16.80;99.90;;;;;;4915872;29;20550;-73
2022/08/13 00:39:20;;;;;;;11.17;10.77;;;16.70;99.90;;;;;;4915976;29;20469;-73
2022/08/13 00:41:49;;;;;;;11.67;10.80;;;16.60;99.90;;;;;;4916079;29;20462;-73
2022/08/13 00:44:18;;;;;;;12.43;11.77;;;16.60;99.90;;;;;;4915824;29;20553;-73
2022/08/13 00:46:45;;;;;;;11.47;10.97;;;16.50;99.90;;;;;;4915566;29;20490;-73
2022/08/13 00:49:13;;;;;;;10.37;9.80;;;16.50;99.90;;;;;;4915764;29;20487;-73
2022/08/13 00:51:42;;;;;;;11.23;10.60;;;16.50;99.90;;;;;;4915663;29;20942;-72
2022/08/13 00:54:11;;;;;;;11.00;10.50;;;16.50;99.90;;;;;;4915488;29;20945;-73
2022/08/13 00:56:39;;;;;;;11.73;10.90;;;16.50;99.90;;;;;;4915634;29;20450;-72
2022/08/13 00:59:12;;;;;;;11.00;10.50;;;16.70;99.90;;;;;;4915701;29;20454;-72
2022/08/13 01:01:39;;;;;;;11.17;10.50;;;16.80;99.90;;;;;;4915486;29;20452;-72
2022/08/13 01:04:07;;;;;;;11.00;10.50;;;16.90;99.90;;;;;;4915543;29;20462;-72
2022/08/13 01:06:35;;;;;;;11.53;10.83;;;17.00;99.90;;;;;;4915502;29;20550;-72
2022/08/13 01:09:03;;;;;;;9.20;8.70;;;17.10;99.90;;;;;;4915398;29;20455;-72
2022/08/13 01:11:33;;;;;;;11.17;10.70;;;17.10;99.90;;;;;;4915220;29;20470;-73
2022/08/13 01:14:02;;;;;;;12.53;11.93;;;17.10;99.90;;;;;;4915109;29;20577;-73
2022/08/13 01:16:36;;;;;;;11.13;10.63;;;17.10;99.90;;;;;;4915182;29;20461;-73
2022/08/13 01:19:06;;;;;;;12.17;11.33;;;16.90;99.90;;;;;;4915347;29;20675;-72
2022/08/13 01:21:36;;;;;;;12.77;12.03;;;16.80;99.90;;;;;;4915341;29;21020;-72
2022/08/13 01:24:03;;;;;;;13.70;12.53;;;16.60;99.90;;;;;;4915216;29;20455;-72
2022/08/13 01:26:32;;;;;;;11.90;10.87;;;16.50;99.90;;;;;;4914998;29;20485;-72
2022/08/13 01:29:04;;;;;;;10.53;9.90;;;16.50;99.90;;;;;;4914976;29;20955;-72
2022/08/13 01:31:32;;;;;;;12.87;11.80;;;16.40;99.90;;;;;;4915189;29;20897;-72
2022/08/13 01:34:00;;;;;;;11.53;10.93;;;16.50;99.90;;;;;;4914788;29;21012;-73
2022/08/13 01:36:27;;;;;;;13.03;12.13;;;16.30;99.90;;;;;;4915045;29;20493;-73
2022/08/13 01:38:59;;;;;;;12.63;11.37;;;16.30;99.90;;;;;;4914780;29;20458;-72
2022/08/13 01:41:26;;;;;;;12.87;12.27;;;16.30;99.90;;;;;;4914953;29;20486;-70
2022/08/13 01:44:04;;;;;;;12.40;11.80;;;16.20;99.90;;;;;;4914871;29;20462;-72
2022/08/13 01:50:28;;;;;;;12.00;11.40;;;16.10;99.90;;;;;;4914743;29;20495;-72
2022/08/13 01:52:04;;;;;;;11.50;10.90;;;16.00;99.90;;;;;;4915033;29;20441;-70
2022/08/13 01:54:33;;;;;;;11.80;11.33;;;16.00;99.90;;;;;;4914796;29;20465;-70
2022/08/13 01:57:01;;;;;;;12.47;11.87;;;16.00;99.90;;;;;;4914665;29;20450;-70
2022/08/13 01:59:28;;;;;;;12.13;11.43;;;16.00;99.90;;;;;;4914752;29;20461;-71
2022/08/13 02:01:57;;;;;;;12.20;11.47;;;15.90;99.90;;;;;;4914611;29;20458;-71
2022/08/13 02:04:24;;;;;;;12.67;12.07;;;15.80;99.90;;;;;;4914636;29;20462;-70
2022/08/13 02:06:52;;;;;;;12.07;11.47;;;15.70;99.90;;;;;;4914645;29;20529;-70
2022/08/13 02:09:19;;;;;;;12.10;11.57;;;15.70;99.90;;;;;;4912872;29;20450;-70
2022/08/13 02:11:47;;;;;;;12.13;11.60;;;15.80;99.90;;;;;;4914690;29;20465;-71
2022/08/13 02:14:15;;;;;;;11.90;11.40;;;15.70;99.90;;;;;;4914379;29;20490;-71
2022/08/13 02:16:42;;;;;;;12.73;11.93;;;15.70;99.90;;;;;;4914602;29;21137;-70
2022/08/13 02:19:09;;;;;;;12.63;11.73;;;15.70;99.90;;;;;;4914468;29;20840;-70
2022/08/13 02:21:37;;;;;;;11.90;11.10;;;15.80;99.90;;;;;;4914527;29;21184;-70
2022/08/13 02:24:08;;;;;;;11.93;11.33;;;15.80;99.90;;;;;;4914594;29;20815;-70
2022/08/13 02:26:38;;;;;;;11.97;11.37;;;15.80;99.90;;;;;;4914636;29;20574;-71
2022/08/13 02:29:07;;;;;;;11.37;10.67;;;15.70;99.90;;;;;;4914621;29;20556;-71
2022/08/13 02:31:34;;;;;;;11.73;11.10;;;15.70;99.90;;;;;;4914681;29;20481;-71
2022/08/13 02:34:01;;;;;;;13.30;12.50;;;15.60;99.90;;;;;;4910939;29;20461;-70
2022/08/13 02:36:28;;;;;;;12.30;11.60;;;15.50;99.90;;;;;;4914189;29;21188;-71
2022/08/13 02:38:55;;;;;;;12.53;11.93;;;15.30;99.90;;;;;;4914081;29;20462;-70
2022/08/13 02:41:43;;;;;;;12.87;12.27;;;15.40;99.90;;;;;;4914054;29;20465;-71
2022/08/13 02:44:13;;;;;;;11.97;11.27;;;15.50;99.90;;;;;;4914289;29;20458;-70
2022/08/13 02:46:42;;;;;;;12.87;11.80;;;15.50;99.90;;;;;;4917534;29;20561;-71
2022/08/13 02:49:09;;;;;;;12.50;11.90;;;15.50;99.90;;;;;;4917888;29;20817;-71
2022/08/13 02:51:38;;;;;;;12.70;12.00;;;15.50;99.90;;;;;;4918014;29;20458;-71
2022/08/13 02:54:06;;;;;;;12.53;11.90;;;15.40;99.90;;;;;;4917958;29;20503;-71
2022/08/13 02:56:36;;;;;;;13.03;12.30;;;15.40;99.90;;;;;;4917883;29;20450;-71
2022/08/13 02:59:06;;;;;;;13.10;12.40;;;15.40;99.90;;;;;;4917864;29;20462;-71
2022/08/13 03:01:34;;;;;;;12.57;11.97;;;15.30;99.90;;;;;;4917742;29;20462;-71
2022/08/13 03:04:01;;;;;;;12.20;11.80;;;15.20;99.90;;;;;;4917705;29;20458;-71
2022/08/13 03:06:28;;;;;;;12.97;12.37;;;15.20;99.90;;;;;;4917257;29;20497;-71
2022/08/13 03:08:55;;;;;;;12.87;12.10;;;15.30;99.90;;;;;;4917392;29;20454;-70
2022/08/13 03:11:21;;;;;;;12.00;11.40;;;15.30;99.90;;;;;;4917504;29;20450;-71
2022/08/13 03:13:53;;;;;;;12.63;12.10;;;15.30;99.90;;;;;;4917263;29;20482;-71
2022/08/13 03:16:24;;;;;;;13.63;12.73;;;15.20;99.90;;;;;;4917658;29;20454;-71
2022/08/13 03:18:54;;;;;;;12.80;11.80;;;15.30;99.90;;;;;;4917523;29;20871;-70
2022/08/13 03:21:23;;;;;;;12.07;11.47;;;15.20;99.90;;;;;;4917374;29;20466;-71
2022/08/13 03:23:51;;;;;;;13.67;12.77;;;15.20;99.90;;;;;;4917404;29;20450;-71
2022/08/13 03:26:18;;;;;;;14.80;13.93;;;15.10;99.90;;;;;;4917267;29;20510;-71
2022/08/13 03:28:45;;;;;;;12.63;11.83;;;15.00;99.90;;;;;;4917142;29;20461;-71
2022/08/13 03:31:11;;;;;;;12.07;11.57;;;15.00;99.90;;;;;;4917068;29;20996;-69
2022/08/13 03:33:38;;;;;;;13.27;12.67;;;15.00;99.90;;;;;;4916961;29;20465;-69
2022/08/13 03:36:07;;;;;;;12.53;11.93;;;14.90;99.90;;;;;;4917060;29;20484;-71
2022/08/13 03:38:35;;;;;;;12.80;12.23;;;14.90;99.90;;;;;;4916903;29;20461;-70
2022/08/13 03:41:08;;;;;;;12.40;11.80;;;15.00;99.90;;;;;;4916960;29;20461;-71
2022/08/13 03:43:34;;;;;;;13.63;12.73;;;14.90;99.90;;;;;;4917068;29;20484;-70
2022/08/13 03:46:01;;;;;;;12.10;11.50;;;14.90;99.90;;;;;;4916807;29;20458;-70
2022/08/13 03:48:28;;;;;;;11.67;11.17;;;14.90;99.90;;;;;;4916561;29;20486;-70
2022/08/13 03:50:55;;;;;;;12.10;11.60;;;14.80;99.90;;;;;;4916656;29;20458;-69
2022/08/13 03:53:23;;;;;;;14.20;13.00;;;14.80;99.90;;;;;;4916785;29;20526;-69
2022/08/13 03:55:50;;;;;;;13.10;12.60;;;14.80;99.90;;;;;;4916593;29;20537;-70
2022/08/13 03:58:17;;;;;;;13.77;12.93;;;14.80;99.90;;;;;;4916578;29;20969;-69
2022/08/13 04:00:47;;;;;;;13.60;12.90;;;14.80;99.90;;;;;;4916460;29;20469;-70
2022/08/13 04:03:19;;;;;;;13.47;12.73;;;14.90;99.90;;;;;;4916551;29;20509;-69
2022/08/13 04:05:46;;;;;;;13.40;12.43;;;14.90;99.90;;;;;;4916401;29;20463;-70
2022/08/13 04:08:13;;;;;;;14.20;13.30;;;14.90;99.90;;;;;;4916190;29;20486;-69
2022/08/13 04:10:41;;;;;;;13.73;13.13;;;14.90;99.90;;;;;;4916299;29;20477;-69
2022/08/13 04:13:12;;;;;;;12.80;12.07;;;14.80;99.90;;;;;;4916102;29;20479;-69
2022/08/13 04:15:42;;;;;;;13.83;13.10;;;14.80;99.90;;;;;;4916456;29;20487;-71
2022/08/13 04:18:11;;;;;;;12.27;11.67;;;14.80;99.90;;;;;;4916228;29;20545;-70
2022/08/13 04:20:39;;;;;;;12.40;11.80;;;14.80;99.90;;;;;;4916192;29;20462;-71
2022/08/13 04:23:07;;;;;;;13.00;12.50;;;14.80;99.90;;;;;;4916349;29;20867;-71
2022/08/13 04:25:35;;;;;;;12.57;11.77;;;14.90;99.90;;;;;;4916348;29;20824;-69
2022/08/13 04:28:04;;;;;;;13.90;12.77;;;14.90;99.90;;;;;;4915857;29;20497;-70
2022/08/13 04:30:35;;;;;;;12.03;11.50;;;14.80;99.90;;;;;;4916073;29;20504;-69
2022/08/13 04:33:03;;;;;;;13.00;12.50;;;14.80;99.90;;;;;;4916166;29;20997;-71
2022/08/13 04:35:30;;;;;;;12.33;11.83;;;14.80;99.90;;;;;;4915998;29;20462;-71
2022/08/13 04:37:58;;;;;;;12.30;11.73;;;14.90;99.90;;;;;;4915743;29;21040;-70
2022/08/13 04:40:24;;;;;;;12.33;11.83;;;15.00;99.90;;;;;;4915718;29;20458;-71
2022/08/13 04:42:53;;;;;;;12.20;11.70;;;15.10;99.90;;;;;;4915955;29;20511;-71
2022/08/13 04:45:22;;;;;;;13.13;12.20;;;15.20;99.90;;;;;;4915932;29;20458;-71
2022/08/13 04:47:49;;;;;;;12.70;12.17;;;15.30;99.90;;;;;;4915883;29;20497;-71
2022/08/13 04:50:16;;;;;;;13.27;12.67;;;15.40;99.90;;;;;;4915705;29;20463;-71
2022/08/13 04:52:43;;;;;;;12.87;12.27;;;15.40;99.90;;;;;;4915489;29;20473;-70
2022/08/13 04:55:12;;;;;;;12.23;11.63;;;15.40;99.90;;;;;;4915617;29;20848;-72
2022/08/13 04:57:39;;;;;;;12.30;11.80;;;15.50;99.90;;;;;;4915374;29;20506;-70
2022/08/13 05:00:07;;;;;;;13.00;12.40;;;15.50;99.90;;;;;;4915497;29;20473;-69
2022/08/13 05:02:38;;;;;;;12.33;11.73;;;15.50;99.90;;;;;;4915554;29;20466;-70
2022/08/13 05:05:06;;;;;;;12.33;11.73;;;15.70;99.90;;;;;;4915669;29;20462;-70
2022/08/13 05:07:33;;;;;;;11.50;11.00;;;16.30;99.90;;;;;;4914768;29;20953;-71
2022/08/13 05:10:00;;;;;;;11.53;10.93;;;17.00;99.90;;;;;;4915413;29;20462;-71
2022/08/13 05:12:27;;;;;;;11.73;11.33;;;17.60;99.90;;;;;;4915178;29;20481;-70
2022/08/13 05:14:54;;;;;;;13.10;12.60;;;18.20;99.90;;;;;;4915107;29;20497;-70
2022/08/13 05:17:21;;;;;;;12.40;11.90;;;18.80;99.90;;;;;;4915187;29;20498;-71
2022/08/13 05:19:49;;;;;;;12.63;12.10;;;19.20;99.90;;;;;;4915402;29;20542;-72
2022/08/13 05:22:15;;;;;;;11.40;10.90;;;19.60;99.80;;;;;;4915122;29;20454;-71
2022/08/13 05:24:42;;;;;;;13.70;13.00;;;20.00;98.80;;;;;;4914926;29;20940;-71
2022/08/13 05:27:13;;;;;;;12.83;12.33;;;20.40;97.70;;;;;;4914735;29;20494;-71
2022/08/13 05:29:41;;;;;;;13.53;12.73;;;20.80;96.80;;;;;;4914961;29;20462;-72
2022/08/13 05:32:10;;;;;;;12.83;12.33;;;21.10;95.40;;;;;;4914902;29;20815;-72
2022/08/13 05:34:38;;;;;;;13.10;12.40;;;21.40;94.60;;;;;;4914913;29;20485;-72
2022/08/13 05:37:07;;;;;;;13.70;13.00;;;21.60;94.10;;;;;;4914951;29;20494;-70
2022/08/13 05:39:33;;;;;;;12.77;12.27;;;21.80;92.90;;;;;;4914984;29;20494;-71
2022/08/13 05:42:00;;;;;;;11.80;11.23;;;21.90;92.30;;;;;;4914615;29;21055;-72
2022/08/13 05:44:27;;;;;;;12.33;11.83;;;22.00;92.20;;;;;;4914407;29;20462;-69
2022/08/13 05:46:54;;;;;;;13.20;12.60;;;22.20;91.80;;;;;;4914328;29;20810;-71
2022/08/13 05:49:23;;;;;;;13.83;13.33;;;22.30;91.40;;;;;;4914766;29;20459;-72
2022/08/13 05:51:50;;;;;;;13.70;13.17;;;22.40;90.90;;;;;;4914765;29;21046;-72
2022/08/13 05:54:19;;;;;;;14.07;13.57;;;22.80;90.00;;;;;;4914635;29;20537;-72
2022/08/13 05:56:46;;;;;;;14.83;14.10;;;23.10;88.70;;;;;;4914702;29;20486;-74
2022/08/13 06:04:37;;;;;;;12.30;11.77;;;23.30;86.00;;;;;;4914655;29;20435;-70
2022/08/13 06:07:04;;;;;;;13.53;12.93;;;23.00;87.00;;;;;;4914676;29;20465;-72
2022/08/13 06:09:32;;;;;;;13.97;13.27;;;23.30;86.90;;;;;;4914476;29;20822;-72
2022/08/13 06:11:59;;;;;;;14.23;13.47;;;23.50;84.90;;;;;;4914472;29;20486;-72
2022/08/13 06:14:26;;;;;;;14.00;13.40;;;23.80;83.90;;;;;;4914355;29;20514;-72
2022/08/13 06:16:53;;;;;;;13.20;12.60;;;23.90;82.90;;;;;;4914375;29;20495;-72
2022/08/13 06:19:21;;;;;;;12.97;12.47;;;24.10;82.10;;;;;;4916043;29;20477;-73
2022/08/13 06:21:50;;;;;;;13.60;12.60;;;24.20;80.90;;;;;;4918590;29;20461;-72
2022/08/13 06:24:17;;;;;;;12.77;12.17;;;24.20;80.30;;;;;;4918206;29;20482;-72
2022/08/13 06:26:45;;;;;;;13.23;12.67;;;24.50;79.60;;;;;;4918177;29;20462;-72
2022/08/13 06:29:13;;;;;;;13.70;13.10;;;24.70;79.30;;;;;;4917998;29;20493;-72
2022/08/13 06:31:40;;;;;;;13.80;13.30;;;25.00;78.20;;;;;;4918011;29;20991;-72
2022/08/13 06:34:09;;;;;;;12.53;12.00;;;24.90;78.30;;;;;;4918293;29;20458;-72
2022/08/13 06:36:37;;;;;;;13.30;12.67;;;25.20;76.60;;;;;;4918305;29;20458;-72
2022/08/13 06:39:06;;;;;;;13.63;12.90;;;25.40;76.20;;;;;;4918133;29;20463;-73
2022/08/13 06:41:34;;;;;;;13.60;13.10;;;25.40;75.80;;;;;;4917978;29;20481;-71
2022/08/13 06:44:03;;;;;;;13.30;12.80;;;25.90;74.80;;;;;;4917631;29;20461;-73
2022/08/13 06:46:31;;;;;;;12.50;12.10;;;26.40;73.30;;;;;;4917707;29;21028;-73
2022/08/13 06:48:59;;;;;;;12.90;12.50;;;26.50;71.50;;;;;;4917617;29;20498;-73
2022/08/13 06:51:26;;;;;;;13.33;12.83;;;26.80;70.80;;;;;;4917623;29;20454;-73
2022/08/13 06:53:55;;;;;;;12.40;11.90;;;27.00;69.70;;;;;;4917400;29;20811;-73
2022/08/13 06:56:24;;;;;;;12.77;12.27;;;27.10;68.90;;;;;;4917634;29;20548;-73
2022/08/13 06:58:52;;;;;;;12.40;11.90;;;27.30;66.70;;;;;;4917585;29;20455;-73
2022/08/13 07:01:23;;;;;;;12.80;12.40;;;27.60;66.20;;;;;;4917703;29;20509;-74
2022/08/13 07:03:51;;;;;;;12.97;12.47;;;27.70;65.00;;;;;;4917584;29;20454;-74
2022/08/13 07:06:20;;;;;;;13.00;12.50;;;27.90;64.20;;;;;;4917479;29;20451;-74
2022/08/13 07:08:47;;;;;;;12.70;12.30;;;28.30;63.50;;;;;;4917394;29;20516;-73
2022/08/13 07:11:23;;;;;;;13.67;13.13;;;27.90;63.60;;;;;;4917470;29;20466;-74
2022/08/13 07:13:52;;;;;;;13.60;13.03;;;27.60;63.80;;;;;;4917273;29;20501;-73
2022/08/13 07:16:22;;;;;;;13.63;13.03;;;27.40;64.60;;;;;;4917499;29;20557;-74
2022/08/13 07:18:51;;;;;;;13.37;12.90;;;27.50;64.70;;;;;;4917424;29;20911;-74
2022/08/13 07:21:20;;;;;;;12.80;12.30;;;28.00;64.00;;;;;;4917296;29;20975;-74
2022/08/13 07:23:48;;;;;;;13.67;13.17;;;28.30;63.00;;;;;;4917093;29;20482;-74
2022/08/13 07:26:18;;;;;;;12.37;11.97;;;29.10;60.80;;;;;;4917019;29;20458;-74
2022/08/13 07:28:46;;;;;;;12.57;12.07;;;29.30;59.80;;;;;;4917064;29;21115;-74
2022/08/13 07:31:14;;;;;;;13.70;13.10;;;29.90;58.80;;;;;;4916209;29;20484;-75
2022/08/13 07:33:51;;;;;;;13.87;13.37;;;30.10;58.60;;;;;;4916800;29;20470;-75
2022/08/13 07:36:19;;;;;;;13.00;12.50;;;30.80;56.90;;;;;;4916996;29;20835;-75
2022/08/13 07:38:46;;;;;;;13.60;13.10;;;31.00;55.60;;;;;;4916713;29;20451;-75
2022/08/13 07:41:13;;;;;;;12.63;12.13;;;30.60;56.00;;;;;;4916724;29;20454;-74
2022/08/13 07:43:43;;;;;;;13.00;12.60;;;31.00;55.90;;;;;;4916568;29;20462;-75
2022/08/13 07:46:12;;;;;;;13.20;12.70;;;31.40;54.40;;;;;;4916401;29;20462;-74
2022/08/13 07:48:43;;;;;;;13.30;12.90;;;31.50;53.90;;;;;;4916499;29;20821;-75
2022/08/13 07:51:19;;;;;;;12.87;12.37;;;30.90;54.30;;;;;;4916483;29;20454;-75
2022/08/13 07:53:46;;;;;;;13.50;12.93;;;30.90;54.70;;;;;;4916548;29;20489;-73
2022/08/13 07:56:16;;;;;;;12.73;12.33;;;30.60;54.30;;;;;;4916571;29;20486;-73
2022/08/13 07:58:43;;;;;;;13.40;12.80;;;30.70;54.40;;;;;;4916526;29;20458;-75
2022/08/13 08:01:12;;;;;;;13.80;13.10;;;30.70;53.90;;;;;;4916413;29;20458;-75
2022/08/13 08:03:42;;;;;;;13.20;12.40;;;30.50;54.40;;;;;;4916420;29;20451;-76
2022/08/13 08:06:10;;;;;;;12.67;12.07;;;30.60;54.40;;;;;;4916277;29;20562;-72
2022/08/13 08:08:40;;;;;;;12.80;12.30;;;31.10;53.60;;;;;;4907357;29;20494;-72
2022/08/13 08:11:08;;;;;;;13.60;13.00;;;31.70;52.80;;;;;;4901355;29;20510;-73
2022/08/13 08:13:38;;;;;;;13.37;12.93;;;32.50;51.80;;;;;;4916254;29;20518;-73
2022/08/13 08:16:06;;;;;;;12.93;12.53;;;32.80;51.00;;;;;;4916256;29;20455;-74
2022/08/13 08:18:34;;;;;;;13.70;13.20;;;33.20;49.80;;;;;;4916398;29;20877;-74
2022/08/13 08:21:06;;;;;;;13.67;13.17;;;33.50;49.20;;;;;;4915513;29;20517;-73
2022/08/13 08:23:36;;;;;;;13.70;13.00;;;32.70;49.30;;;;;;4915949;29;20454;-73
2022/08/13 08:26:07;;;;;;;13.30;12.80;;;33.30;48.90;;;;;;4915119;29;20458;-73
2022/08/13 08:28:34;;;;;;;13.27;12.87;;;33.50;47.80;;;;;;4916248;29;20829;-73
2022/08/13 08:31:06;;;;;;;13.30;12.90;;;32.80;48.40;;;;;;4915666;29;20455;-74
2022/08/13 08:33:34;;;;;;;13.93;13.50;;;33.20;48.40;;;;;;4916236;29;20462;-75
2022/08/13 08:36:02;;;;;;;14.13;13.53;;;32.90;48.80;;;;;;4915903;29;20481;-75
2022/08/13 08:44:03;;;;;;;13.50;12.90;;;31.90;49.30;;;;;;4914914;29;20438;-74
2022/08/13 08:46:33;;;;;;;14.00;13.30;;;30.20;52.10;;;;;;4915695;29;20470;-73
2022/08/13 08:49:02;;;;;;;13.60;13.10;;;29.60;53.80;;;;;;4915585;29;20498;-74
2022/08/13 08:51:30;;;;;;;12.47;12.03;;;29.00;55.00;;;;;;4915317;29;20454;-74
2022/08/13 08:53:57;;;;;;;13.03;12.53;;;29.00;55.70;;;;;;4915486;29;20467;-74
2022/08/13 08:56:26;;;;;;;14.27;13.63;;;28.60;56.40;;;;;;4915445;29;20505;-74
2022/08/13 08:58:55;;;;;;;12.80;12.20;;;27.90;57.30;;;;;;4915574;29;20454;-73
2022/08/13 09:01:24;;;;;;;13.07;12.60;;;27.60;58.70;;;;;;4915470;29;20454;-74
2022/08/13 09:03:52;;;;;;;12.40;12.00;;;27.20;59.80;;;;;;4915648;29;20593;-74
2022/08/13 09:06:23;;;;;;;12.13;11.73;;;27.40;59.60;;;;;;4915489;29;20458;-73
2022/08/13 09:08:52;;;;;;;12.93;12.53;;;28.00;58.70;;;;;;4915365;29;20482;-74
2022/08/13 09:11:19;;;;;;;13.40;12.90;;;28.70;57.60;;;;;;4915542;29;20462;-74
2022/08/13 09:13:49;;;;;;;12.93;12.53;;;29.00;56.80;;;;;;4915030;29;21011;-75
2022/08/13 09:16:16;;;;;;;12.00;11.60;;;29.10;56.00;;;;;;4915043;29;20462;-74
2022/08/13 09:18:44;;;;;;;13.10;12.40;;;29.10;55.90;;;;;;4915300;29;20458;-74
2022/08/13 09:21:11;;;;;;;12.33;11.73;;;28.80;56.00;;;;;;4914974;29;20992;-75
2022/08/13 09:23:42;;;;;;;12.43;11.83;;;28.50;56.80;;;;;;4915231;29;20465;-74
2022/08/13 09:26:10;;;;;;;13.10;12.10;;;28.40;56.40;;;;;;4915009;29;20458;-74
2022/08/13 09:28:38;;;;;;;12.03;11.57;;;28.20;56.60;;;;;;4915070;29;20494;-74
2022/08/13 09:31:07;;;;;;;12.50;12.10;;;28.20;57.10;;;;;;4914901;29;20968;-75
2022/08/13 09:33:38;;;;;;;13.97;13.00;;;28.80;56.40;;;;;;4915050;29;20497;-75
2022/08/13 09:36:07;;;;;;;12.03;11.60;;;29.40;55.10;;;;;;4915061;29;20462;-75
2022/08/13 09:38:35;;;;;;;12.80;12.40;;;30.90;52.70;;;;;;4914735;29;20446;-75
2022/08/13 09:41:17;;;;;;;13.20;12.70;;;31.40;50.50;;;;;;4914770;29;20465;-75
2022/08/13 09:43:45;;;;;;;13.17;12.70;;;31.60;50.20;;;;;;4914952;29;20555;-75
2022/08/13 09:46:16;;;;;;;13.60;13.10;;;32.00;49.40;;;;;;4914689;29;20462;-75
2022/08/13 09:48:44;;;;;;;14.20;13.40;;;32.20;48.30;;;;;;4914745;29;20581;-75
2022/08/13 09:51:13;;;;;;;13.27;12.60;;;32.40;47.80;;;;;;4914657;29;20450;-75
2022/08/13 09:53:40;;;;;;;14.17;13.60;;;32.90;45.90;;;;;;4914465;29;20462;-76
2022/08/13 09:56:08;;;;;;;12.33;11.87;;;32.80;45.40;;;;;;4914953;29;20885;-75
2022/08/13 09:58:35;;;;;;;13.13;12.73;;;32.40;46.10;;;;;;4914703;29;20454;-76
2022/08/13 10:01:02;;;;;;;12.90;12.40;;;31.30;47.10;;;;;;4914963;29;20526;-76
2022/08/13 10:03:32;;;;;;;12.83;12.30;;;30.70;48.50;;;;;;4914661;29;20497;-76
2022/08/13 10:05:58;;;;;;;13.13;12.67;;;30.10;49.20;;;;;;4914597;29;20549;-74
2022/08/13 10:08:25;;;;;;;12.17;11.57;;;30.10;49.50;;;;;;4914337;29;20462;-75
2022/08/13 10:10:52;;;;;;;14.07;13.33;;;30.10;49.30;;;;;;4914543;29;20458;-76
2022/08/13 10:13:19;;;;;;;11.87;11.43;;;30.40;49.70;;;;;;4914358;29;20517;-75
2022/08/13 10:15:46;;;;;;;12.10;11.70;;;29.90;49.80;;;;;;4914400;29;20481;-75
2022/08/13 10:18:13;;;;;;;12.97;12.57;;;29.80;49.40;;;;;;4914213;29;20458;-75
2022/08/13 10:20:45;;;;;;;13.03;12.53;;;30.40;49.00;;;;;;4914328;29;20458;-75
2022/08/13 10:23:15;;;;;;;12.30;11.90;;;30.20;48.20;;;;;;4914340;29;20459;-75
2022/08/13 10:25:43;;;;;;;12.30;11.90;;;30.90;48.60;;;;;;4914359;29;20465;-76
2022/08/13 10:28:18;;;;;;;12.57;12.17;;;31.50;46.90;;;;;;4914168;29;20470;-77
2022/08/13 10:30:46;;;;;;;13.70;13.10;;;31.60;46.80;;;;;;4914034;29;20493;-76
2022/08/13 10:33:15;;;;;;;12.40;11.90;;;32.30;46.60;;;;;;4913796;29;20549;-76
2022/08/13 10:35:44;;;;;;;11.97;11.40;;;32.90;45.10;;;;;;4913124;29;20543;-76
2022/08/13 10:38:16;;;;;;;12.67;12.10;;;32.80;45.50;;;;;;4913928;29;20620;-75
2022/08/13 10:40:43;;;;;;;12.87;12.37;;;32.00;45.80;;;;;;4914066;29;20859;-75
2022/08/13 10:43:10;;;;;;;13.60;13.10;;;31.70;44.70;;;;;;4914010;29;20461;-74
2022/08/13 10:45:40;;;;;;;11.20;10.87;;;30.80;45.90;;;;;;4914288;29;20459;-75
2022/08/13 10:48:09;;;;;;;11.77;11.43;;;30.20;47.10;;;;;;4914095;29;20489;-75
2022/08/13 10:50:36;;;;;;;11.27;10.80;;;30.20;47.30;;;;;;4913962;29;20510;-75
2022/08/13 10:53:05;;;;;;;12.40;11.80;;;30.40;46.50;;;;;;4914207;29;20458;-75
2022/08/13 10:55:33;;;;;;;11.90;11.50;;;30.80;46.20;;;;;;4913859;29;20817;-75
2022/08/13 10:58:01;;;;;;;12.20;11.80;;;31.80;44.90;;;;;;4913422;29;20466;-75
2022/08/13 11:00:28;;;;;;;12.60;12.20;;;32.80;43.20;;;;;;4914156;29;20764;-76
2022/08/13 11:02:54;;;;;;;13.20;12.70;;;33.80;41.90;;;;;;4914058;29;20458;-75
2022/08/13 11:05:26;;;;;;;13.20;12.80;;;34.90;40.40;;;;;;4914159;29;20462;-82
2022/08/13 11:07:53;;;;;;;13.40;12.90;;;34.30;39.70;;;;;;4917458;29;20936;-75
2022/08/13 11:10:22;;;;;;;13.50;13.00;;;33.80;40.70;;;;;;4917013;29;20534;-75
2022/08/13 11:12:51;;;;;;;12.83;12.43;;;33.60;40.70;;;;;;4917394;29;21003;-73
2022/08/13 11:15:20;;;;;;;13.50;13.00;;;34.30;40.00;;;;;;4916985;29;20478;-71
2022/08/13 11:17:48;;;;;;;13.13;12.43;;;35.20;38.80;;;;;;4916842;29;20458;-71
2022/08/13 11:20:18;;;;;;;13.40;13.00;;;35.20;38.20;;;;;;4917086;29;20454;-71
2022/08/13 11:22:45;;;;;;;13.60;13.10;;;35.00;37.90;;;;;;4917050;29;20458;-71
2022/08/13 11:25:12;;;;;;;13.10;12.70;;;34.60;38.60;;;;;;4917006;29;20984;-71
2022/08/13 11:27:40;;;;;;;12.80;12.30;;;34.40;39.00;;;;;;4916904;29;20465;-71
2022/08/13 11:30:08;;;;;;;13.47;12.87;;;34.30;39.70;;;;;;4916996;29;20501;-71
2022/08/13 11:32:34;;;;;;;13.60;13.00;;;35.40;38.00;;;;;;4917034;29;20465;-70
2022/08/13 11:35:01;;;;;;;13.20;12.60;;;36.10;36.80;;;;;;4916986;29;20462;-69
2022/08/13 11:37:28;;;;;;;12.60;12.20;;;36.50;35.90;;;;;;4916788;29;20466;-68
2022/08/13 11:39:54;;;;;;;13.53;13.03;;;35.90;36.00;;;;;;4916869;29;20458;-66
2022/08/13 11:42:21;;;;;;;13.80;13.30;;;35.50;36.80;;;;;;4916888;29;20454;-68
2022/08/13 11:44:49;;;;;;;13.23;12.73;;;34.80;37.40;;;;;;4916963;29;20878;-68
2022/08/13 11:47:16;;;;;;;12.80;12.40;;;34.70;37.60;;;;;;4916974;29;20454;-67
2022/08/13 11:49:43;;;;;;;16.87;16.10;;;34.00;37.90;;;;;;4916568;29;21217;-68
2022/08/13 11:52:09;;;;;;;13.30;12.80;;;34.50;37.40;;;;;;4915045;29;21069;-68
2022/08/13 11:54:36;;;;;;;13.47;12.97;;;35.30;36.80;;;;;;4916924;29;20458;-66
2022/08/13 11:57:03;;;;;;;13.43;12.93;;;36.60;36.00;;;;;;4916916;29;20450;-67
2022/08/13 11:59:30;;;;;;;13.70;13.20;;;38.30;33.70;;;;;;4914138;29;20963;-67
2022/08/13 12:01:58;;;;;;;16.00;15.40;;;38.60;32.70;;;;;;4916041;29;20885;-67
2022/08/13 12:04:26;;;;;;;13.73;13.33;;;38.70;32.50;;;;;;4916055;29;20458;-66
2022/08/13 12:06:52;;;;;;;12.90;12.20;;;37.70;33.10;;;;;;4916157;29;20477;-68
2022/08/13 12:09:20;;;;;;;14.97;14.27;;;37.30;33.20;;;;;;4916282;29;20493;-67
2022/08/13 12:11:46;;;;;;;16.60;15.70;;;36.30;33.60;;;;;;4916138;29;20458;-65
2022/08/13 12:14:13;;;;;;;13.90;13.30;;;35.20;34.70;;;;;;4915847;29;20501;-67
2022/08/13 12:16:40;;;;;;;13.83;13.23;;;34.50;36.10;;;;;;4915833;29;20824;-67
2022/08/13 12:19:08;;;;;;;12.67;12.27;;;34.40;36.60;;;;;;4916066;29;20458;-68
2022/08/13 12:21:34;;;;;;;18.60;17.80;;;34.10;36.60;;;;;;4915962;29;20517;-69
2022/08/13 12:24:01;;;;;;;13.43;12.93;;;32.80;37.60;;;;;;4916206;29;20828;-66
2022/08/13 12:26:28;;;;;;;21.70;20.20;;;32.60;38.40;;;;;;4916044;29;20459;-66
2022/08/13 12:28:54;;;;;;;12.50;12.00;;;32.90;38.60;;;;;;4916059;29;20469;-67
2022/08/13 12:31:21;;;;;;;13.20;12.70;;;33.30;37.50;;;;;;4915970;29;21032;-67
2022/08/13 12:33:48;;;;;;;12.93;12.33;;;33.70;37.40;;;;;;4915979;29;20458;-67
2022/08/13 12:36:16;;;;;;;12.80;12.40;;;34.60;36.10;;;;;;4915870;29;20459;-68
2022/08/13 12:38:43;;;;;;;12.43;12.03;;;35.00;35.80;;;;;;4915836;29;20671;-67
2022/08/13 12:41:09;;;;;;;13.50;13.00;;;35.90;34.80;;;;;;4915758;29;20443;-67
2022/08/13 12:43:36;;;;;;;14.40;13.83;;;37.20;33.60;;;;;;4915809;29;20818;-68
2022/08/13 12:46:03;;;;;;;15.07;14.40;;;37.90;32.70;;;;;;4915733;29;20459;-68
2022/08/13 12:48:31;;;;;;;14.70;13.83;;;37.50;32.00;;;;;;4915649;29;20458;-68
2022/08/13 12:50:58;;;;;;;13.13;12.63;;;36.50;32.20;;;;;;4915581;29;20526;-67